createdAt,value
2022-12-25T00:02:30.875Z,11.20
2022-12-25T00:07:34.378Z,10.90
2022-12-25T00:12:38.887Z,11.70
2022-12-25T00:17:43.945Z,12.30
2022-12-25T00:22:47.774Z,11.90
2022-12-25T00:27:51.091Z,11.60
2022-12-25T00:32:54.371Z,12.00
2022-12-25T00:37:57.603Z,12.00
2022-12-25T00:43:00.904Z,12.50
2022-12-25T00:48:05.067Z,11.40
2022-12-25T00:53:08.372Z,12.80
2022-12-25T00:58:11.628Z,12.50
2022-12-25T01:03:15.461Z,12.90
2022-12-25T01:08:18.752Z,15.60
2022-12-25T01:13:22.069Z,13.50
2022-12-25T01:18:26.776Z,14.20
2022-12-25T01:23:30.078Z,14.90
2022-12-25T01:28:33.418Z,15.80
2022-12-25T01:33:36.734Z,14.30
2022-12-25T01:38:40.006Z,12.80
2022-12-25T01:44:19.019Z,13.30
2022-12-25T01:49:26.186Z,14.70
2022-12-25T01:54:56.192Z,20.70
2022-12-25T02:00:01.303Z,17.10
2022-12-25T02:05:12.521Z,15.20
2022-12-25T02:10:15.903Z,15.70
2022-12-25T02:15:22.623Z,17.40
2022-12-25T02:20:28.966Z,15.70
2022-12-25T02:26:06.242Z,16.70
2022-12-25T02:31:20.409Z,15.90
2022-12-25T02:36:29.177Z,16.80
2022-12-25T02:41:38.982Z,12.20
2022-12-25T02:47:03.358Z,15.50
2022-12-25T02:52:33.316Z,12.60
2022-12-25T02:58:05.922Z,11.50
2022-12-25T03:03:30.004Z,14.50
2022-12-25T03:08:41.751Z,14.70
2022-12-25T03:13:49.974Z,12.90
2022-12-25T03:18:56.157Z,15.00
2022-12-25T03:24:20.853Z,12.40
2022-12-25T03:29:52.391Z,10.70
2022-12-25T03:35:23.405Z,13.80
2022-12-25T03:40:52.766Z,13.30
2022-12-25T03:46:24.023Z,13.80
2022-12-25T03:51:51.298Z,13.70
2022-12-25T03:57:14.695Z,13.00
2022-12-25T04:02:37.211Z,15.50
2022-12-25T04:07:59.348Z,13.60
2022-12-25T04:13:21.402Z,13.60
2022-12-25T04:18:43.439Z,12.60
2022-12-25T04:24:05.509Z,12.10
2022-12-25T04:29:27.718Z,12.30
2022-12-25T04:34:49.883Z,13.10
2022-12-25T04:39:53.154Z,12.10
2022-12-25T04:44:56.477Z,12.40
2022-12-25T04:49:59.717Z,12.70
2022-12-25T04:55:04.293Z,16.10
2022-12-25T05:00:08.763Z,18.10
2022-12-25T05:05:12.180Z,14.80
2022-12-25T05:10:15.491Z,16.50
2022-12-25T05:15:18.785Z,18.30
2022-12-25T05:20:22.008Z,18.00
2022-12-25T05:25:25.326Z,14.80
2022-12-25T05:30:28.557Z,17.60
2022-12-25T05:35:32.530Z,18.00
2022-12-25T05:40:40.315Z,14.20
2022-12-25T05:45:43.670Z,15.50
2022-12-25T05:50:46.989Z,15.10
2022-12-25T05:55:50.322Z,17.50
2022-12-25T06:00:53.656Z,18.60
2022-12-25T06:05:58.031Z,22.80
2022-12-25T06:11:06.117Z,19.50
2022-12-25T06:16:12.566Z,17.60
2022-12-25T06:21:16.683Z,21.80
2022-12-25T06:26:20.711Z,22.00
2022-12-25T06:31:25.127Z,17.50
2022-12-25T06:36:29.779Z,18.60
2022-12-25T06:41:33.176Z,18.00
2022-12-25T06:46:36.606Z,25.50
2022-12-25T06:51:39.939Z,19.50
2022-12-25T06:56:43.222Z,24.40
2022-12-25T07:01:49.023Z,25.30
2022-12-25T07:06:53.106Z,22.00
2022-12-25T07:12:04.608Z,25.80
2022-12-25T07:17:08.363Z,20.00
2022-12-25T07:22:11.668Z,27.20
2022-12-25T07:27:14.994Z,26.80
2022-12-25T07:32:18.741Z,23.20
2022-12-25T07:37:22.451Z,20.90
2022-12-25T07:42:25.816Z,22.60
2022-12-25T07:47:29.668Z,27.40
2022-12-25T07:52:43.058Z,29.20
2022-12-25T07:57:46.850Z,22.00
2022-12-25T08:02:51.473Z,21.90
2022-12-25T08:07:57.962Z,23.40
2022-12-25T08:13:01.703Z,22.10
2022-12-25T08:18:05.319Z,29.50
2022-12-25T08:23:08.855Z,32.50
2022-12-25T08:28:12.408Z,32.10
2022-12-25T08:33:15.683Z,28.50
2022-12-25T08:38:19.004Z,24.70
2022-12-25T08:43:22.953Z,31.60
2022-12-25T08:48:26.451Z,28.30
2022-12-25T08:53:30.510Z,26.50
2022-12-25T08:58:33.967Z,23.80
2022-12-25T09:03:37.594Z,25.00
2022-12-25T09:08:48.117Z,26.90
2022-12-25T09:13:53.223Z,28.70
2022-12-25T09:19:00.532Z,26.50
2022-12-25T09:24:05.640Z,25.10
2022-12-25T09:29:09.394Z,32.60
2022-12-25T09:34:18.810Z,25.90
2022-12-25T09:39:23.797Z,31.20
2022-12-25T09:44:33.539Z,22.60
2022-12-25T09:49:59.289Z,23.10
2022-12-25T09:55:06.673Z,23.70
2022-12-25T10:00:22.397Z,19.80
2022-12-25T10:05:36.200Z,17.50
2022-12-25T10:10:51.785Z,20.90
2022-12-25T10:16:29.488Z,22.40
2022-12-25T10:21:33.654Z,17.10
2022-12-25T10:26:37.393Z,25.10
2022-12-25T10:31:42.319Z,21.90
2022-12-25T10:36:46.821Z,19.30
2022-12-25T10:42:27.285Z,17.50
2022-12-25T10:47:34.805Z,15.70
2022-12-25T10:52:52.654Z,27.20
2022-12-25T10:57:58.382Z,21.70
2022-12-25T11:03:02.526Z,18.30
2022-12-25T11:08:22.194Z,22.00
2022-12-25T11:13:28.458Z,18.80
2022-12-25T11:18:53.142Z,17.30
2022-12-25T11:24:02.957Z,16.40
2022-12-25T11:29:22.571Z,18.00
2022-12-25T11:34:34.203Z,16.30
2022-12-25T11:39:42.300Z,17.20
2022-12-25T11:44:56.569Z,17.50
2022-12-25T11:50:06.902Z,16.00
2022-12-25T11:55:37.639Z,14.10
2022-12-25T12:00:43.712Z,15.20
2022-12-25T12:06:02.517Z,14.90
2022-12-25T12:11:22.233Z,14.90
2022-12-25T12:16:29.994Z,12.80
2022-12-25T12:21:33.557Z,17.00
2022-12-25T12:26:41.156Z,17.30
2022-12-25T12:31:49.119Z,18.50
2022-12-25T12:36:59.682Z,16.00
2022-12-25T12:42:12.135Z,20.60
2022-12-25T12:47:43.247Z,19.60
2022-12-25T12:52:48.835Z,15.80
2022-12-25T12:57:59.458Z,16.40
2022-12-25T13:03:35.064Z,15.50
2022-12-25T13:09:01.940Z,14.00
2022-12-25T13:14:05.418Z,15.60
2022-12-25T13:19:14.758Z,18.90
2022-12-25T13:24:24.436Z,20.50
2022-12-25T13:29:33.187Z,16.20
2022-12-25T13:34:38.835Z,20.60
2022-12-25T13:39:50.519Z,19.00
2022-12-25T13:44:56.393Z,24.30
2022-12-25T13:50:14.178Z,27.60
2022-12-25T13:55:20.646Z,29.60
2022-12-25T14:00:31.726Z,28.10
2022-12-25T14:05:42.670Z,27.00
2022-12-25T14:10:52.829Z,31.20
2022-12-25T14:15:58.802Z,28.50
2022-12-25T14:21:16.063Z,26.10
2022-12-25T14:26:27.992Z,20.50
2022-12-25T14:31:33.466Z,19.80
2022-12-25T14:36:37.907Z,20.70
2022-12-25T14:41:42.459Z,23.60
2022-12-25T14:46:45.760Z,24.70
2022-12-25T14:51:49.699Z,21.20
2022-12-25T14:56:56.859Z,23.50
2022-12-25T15:02:03.681Z,26.50
2022-12-25T15:07:28.301Z,24.20
2022-12-25T15:12:31.698Z,19.30
2022-12-25T15:17:37.049Z,22.90
2022-12-25T15:23:02.853Z,21.60
2022-12-25T15:28:08.039Z,20.50
2022-12-25T15:33:18.530Z,20.40
2022-12-25T15:38:22.730Z,20.90
2022-12-25T15:43:41.905Z,15.50
2022-12-25T15:48:45.337Z,19.90
2022-12-25T15:53:49.209Z,18.40
2022-12-25T15:58:52.831Z,20.70
2022-12-25T16:03:58.982Z,22.30
2022-12-25T16:09:02.374Z,29.10
2022-12-25T16:14:06.445Z,33.90
2022-12-25T16:19:09.745Z,24.80
2022-12-25T16:24:14.461Z,30.30
2022-12-25T16:29:18.471Z,33.80
2022-12-25T16:34:21.758Z,25.90
2022-12-25T16:39:25.492Z,31.90
2022-12-25T16:44:29.024Z,24.30
2022-12-25T16:49:32.630Z,26.40
2022-12-25T16:54:36.632Z,31.00
2022-12-25T16:59:40.043Z,26.60
2022-12-25T17:04:45.099Z,27.00
2022-12-25T17:09:49.982Z,27.30
2022-12-25T17:14:53.885Z,25.30
2022-12-25T17:19:57.924Z,28.70
2022-12-25T17:25:01.453Z,23.20
2022-12-25T17:30:05.561Z,31.40
2022-12-25T17:35:09.335Z,28.60
2022-12-25T17:40:13.241Z,37.30
2022-12-25T17:45:16.796Z,32.50
2022-12-25T17:50:20.132Z,30.00
2022-12-25T17:55:23.433Z,37.30
2022-12-25T18:00:27.092Z,34.10
2022-12-25T18:05:30.593Z,36.00
2022-12-25T18:10:43.969Z,33.30
2022-12-25T18:15:47.652Z,36.30
2022-12-25T18:20:53.485Z,32.30
2022-12-25T18:25:57.339Z,29.80
2022-12-25T18:31:01.339Z,29.00
2022-12-25T18:36:05.386Z,36.20
2022-12-25T18:41:11.087Z,29.40
2022-12-25T18:46:17.761Z,29.40
2022-12-25T18:51:21.360Z,41.60
2022-12-25T18:56:25.204Z,40.50
2022-12-25T19:01:28.970Z,40.80
2022-12-25T19:06:35.391Z,37.00
2022-12-25T19:11:46.186Z,29.80
2022-12-25T19:16:52.413Z,38.70
2022-12-25T19:21:57.878Z,33.20
2022-12-25T19:27:01.287Z,36.30
2022-12-25T19:32:04.899Z,28.20
2022-12-25T19:37:08.800Z,35.10
2022-12-25T19:42:14.026Z,38.60
2022-12-25T19:47:17.576Z,36.10
2022-12-25T19:52:21.048Z,31.00
2022-12-25T19:57:24.316Z,32.50
2022-12-25T20:02:27.759Z,28.90
2022-12-25T20:07:31.570Z,30.50
2022-12-25T20:12:35.153Z,27.20
2022-12-25T20:17:38.628Z,32.60
2022-12-25T20:22:42.020Z,29.40
2022-12-25T20:27:45.728Z,40.10
2022-12-25T20:32:50.771Z,36.00
2022-12-25T20:37:54.266Z,30.80
2022-12-25T20:42:57.570Z,27.90
2022-12-25T20:48:01.475Z,30.20
2022-12-25T20:53:05.090Z,27.30
2022-12-25T20:58:08.377Z,27.10
2022-12-25T21:03:12.321Z,29.20
2022-12-25T21:08:21.087Z,27.00
2022-12-25T21:13:26.743Z,34.80
2022-12-25T21:18:30.105Z,28.00
2022-12-25T21:23:35.792Z,26.50
2022-12-25T21:28:39.229Z,30.10
2022-12-25T21:33:51.710Z,30.10
2022-12-25T21:39:01.269Z,29.90
2022-12-25T21:44:05.518Z,30.70
2022-12-25T21:49:09.595Z,24.60
2022-12-25T21:54:14.065Z,27.50
2022-12-25T21:59:22.415Z,27.00
2022-12-25T22:04:26.064Z,30.00
2022-12-25T22:09:29.715Z,36.30
2022-12-25T22:14:59.359Z,27.70
2022-12-25T22:20:08.939Z,22.70
2022-12-25T22:25:15.166Z,22.80
2022-12-25T22:30:25.410Z,26.50
2022-12-25T22:35:28.720Z,28.40
2022-12-25T22:40:38.147Z,27.80
2022-12-25T22:45:41.577Z,23.00
2022-12-25T22:50:44.917Z,22.80
2022-12-25T22:55:49.812Z,27.60
2022-12-25T23:00:53.252Z,21.60
2022-12-25T23:05:57.430Z,21.30
2022-12-25T23:11:05.950Z,19.80
2022-12-25T23:16:14.797Z,27.10
2022-12-25T23:21:37.290Z,24.60
2022-12-25T23:26:40.575Z,21.40
2022-12-25T23:31:44.274Z,23.60
2022-12-25T23:36:47.959Z,27.30
2022-12-25T23:41:51.827Z,29.40
2022-12-25T23:46:55.420Z,27.30
2022-12-25T23:51:58.800Z,24.10
2022-12-25T23:57:02.209Z,25.00
